createdAt,value
2019-02-19T00:01:18.872Z,16.83
2019-02-19T00:03:48.312Z,19.80
2019-02-19T00:06:20.396Z,14.80
2019-02-19T00:08:52.396Z,19.40
2019-02-19T00:11:27.588Z,17.80
2019-02-19T00:13:57.036Z,17.47
2019-02-19T00:16:30.702Z,15.93
2019-02-19T00:19:00.120Z,16.47
2019-02-19T00:21:29.549Z,16.10
2019-02-19T00:23:58.976Z,15.70
2019-02-19T00:26:28.387Z,16.47
2019-02-19T00:29:00.463Z,16.70
2019-02-19T00:31:32.757Z,14.67
2019-02-19T00:34:16.239Z,19.80
2019-02-19T00:36:45.694Z,16.87
2019-02-19T00:39:16.737Z,14.40
2019-02-19T00:41:46.395Z,17.80
2019-02-19T00:44:18.502Z,18.67
2019-02-19T00:46:47.933Z,17.23
2019-02-19T00:49:17.398Z,15.93
2019-02-19T00:51:46.877Z,16.33
2019-02-19T00:54:16.406Z,17.80
2019-02-19T00:56:45.843Z,16.97
2019-02-19T00:59:16.997Z,17.37
2019-02-19T01:01:46.542Z,16.63
2019-02-19T01:04:15.969Z,15.33
2019-02-19T01:06:45.409Z,14.50
2019-02-19T01:09:14.836Z,17.00
2019-02-19T01:11:44.289Z,15.70
2019-02-19T01:14:13.751Z,15.30
2019-02-19T01:16:45.851Z,16.77
2019-02-19T01:19:15.259Z,19.03
2019-02-19T01:21:44.717Z,19.13
2019-02-19T01:24:14.119Z,18.10
2019-02-19T01:26:46.192Z,16.47
2019-02-19T01:29:19.113Z,16.90
2019-02-19T01:31:48.521Z,15.93
2019-02-19T01:34:20.549Z,18.17
2019-02-19T01:37:09.916Z,15.37
2019-02-19T01:39:40.906Z,15.47
2019-02-19T01:42:10.366Z,14.50
2019-02-19T01:44:39.775Z,18.10
2019-02-19T01:47:09.171Z,15.43
2019-02-19T01:49:41.279Z,15.23
2019-02-19T01:52:13.448Z,15.27
2019-02-19T01:54:47.423Z,17.17
2019-02-19T01:57:16.816Z,17.83
2019-02-19T01:59:46.493Z,14.87
2019-02-19T02:02:15.982Z,16.20
2019-02-19T02:04:45.482Z,15.03
2019-02-19T02:07:14.949Z,18.10
2019-02-19T02:09:44.356Z,20.27
2019-02-19T02:12:16.617Z,19.47
2019-02-19T02:14:46.033Z,20.77
2019-02-19T02:17:15.431Z,20.87
2019-02-19T02:19:53.743Z,18.40
2019-02-19T02:22:25.937Z,24.17
2019-02-19T02:24:55.316Z,24.37
2019-02-19T02:27:24.727Z,23.13
2019-02-19T02:29:54.220Z,25.93
2019-02-19T02:32:28.127Z,31.63
2019-02-19T02:34:59.273Z,26.97
2019-02-19T02:37:30.316Z,23.23
2019-02-19T02:39:59.823Z,30.57
2019-02-19T02:42:31.964Z,33.47
2019-02-19T02:45:01.364Z,30.87
2019-02-19T02:47:30.787Z,29.53
2019-02-19T02:50:00.247Z,34.30
2019-02-19T02:52:36.978Z,33.07
2019-02-19T02:55:06.381Z,35.50
2019-02-19T02:57:35.785Z,38.23
2019-02-19T03:00:08.137Z,43.17
2019-02-19T03:02:37.710Z,41.73
2019-02-19T03:05:07.130Z,37.20
2019-02-19T03:07:38.158Z,38.63
2019-02-19T03:10:07.622Z,40.70
2019-02-19T03:12:37.035Z,43.07
2019-02-19T03:15:07.694Z,40.77
2019-02-19T03:17:37.266Z,40.23
2019-02-19T03:20:07.462Z,38.03
2019-02-19T03:22:36.896Z,35.70
2019-02-19T03:25:06.306Z,38.50
2019-02-19T03:27:35.751Z,39.17
2019-02-19T03:30:09.725Z,39.40
2019-02-19T03:32:39.166Z,39.53
2019-02-19T03:35:10.200Z,40.80
2019-02-19T03:37:40.246Z,40.00
2019-02-19T03:40:17.607Z,39.77
2019-02-19T03:42:49.692Z,37.63
2019-02-19T03:45:19.162Z,41.97
2019-02-19T03:47:48.591Z,38.70
2019-02-19T03:50:18.032Z,41.23
2019-02-19T03:52:47.439Z,41.73
2019-02-19T03:55:16.870Z,38.27
2019-02-19T03:57:46.275Z,40.10
2019-02-19T04:00:17.077Z,38.83
2019-02-19T04:02:46.532Z,41.60
2019-02-19T04:05:15.989Z,44.93
2019-02-19T04:07:45.477Z,48.03
2019-02-19T04:10:14.895Z,46.20
2019-02-19T04:12:44.402Z,50.07
2019-02-19T04:15:16.505Z,54.77
2019-02-19T04:17:45.918Z,49.40
2019-02-19T04:20:15.341Z,50.63
2019-02-19T04:22:44.768Z,50.23
2019-02-19T04:25:14.183Z,52.17
2019-02-19T04:27:51.574Z,52.33
2019-02-19T04:30:32.996Z,52.57
2019-02-19T04:33:05.112Z,53.43
2019-02-19T04:35:47.314Z,49.50
2019-02-19T04:38:16.735Z,45.33
2019-02-19T04:40:46.138Z,47.93
2019-02-19T04:43:15.566Z,45.10
2019-02-19T04:45:52.263Z,51.37
2019-02-19T04:48:42.672Z,51.03
2019-02-19T04:51:16.369Z,52.90
2019-02-19T04:53:45.810Z,51.27
2019-02-19T04:56:15.236Z,46.67
2019-02-19T04:58:44.672Z,48.40
2019-02-19T05:01:14.182Z,51.87
2019-02-19T05:03:46.411Z,51.57
2019-02-19T05:06:17.447Z,51.50
2019-02-19T05:08:46.837Z,50.53
2019-02-19T05:11:16.258Z,49.00
2019-02-19T05:13:45.707Z,47.10
2019-02-19T05:19:20.203Z,51.50
2019-02-19T05:22:01.571Z,50.03
2019-02-19T05:24:31.065Z,55.10
2019-02-19T05:27:00.555Z,50.83
2019-02-19T05:29:29.954Z,62.80
2019-02-19T05:36:32.481Z,53.70
2019-02-19T05:39:57.283Z,60.43
2019-02-19T05:43:21.164Z,55.77
2019-02-19T05:46:49.867Z,62.50
2019-02-19T05:50:10.715Z,62.60
2019-02-19T05:53:35.888Z,59.00
2019-02-19T05:56:59.928Z,65.90
2019-02-19T06:00:31.563Z,64.93
2019-02-19T06:03:55.423Z,64.40
2019-02-19T06:07:19.188Z,59.93
2019-02-19T06:10:44.179Z,67.70
2019-02-19T06:14:08.455Z,68.33
2019-02-19T06:17:33.322Z,66.17
2019-02-19T06:20:08.739Z,63.30
2019-02-19T06:22:38.070Z,64.63
2019-02-19T06:26:02.284Z,63.77
2019-02-19T06:28:41.797Z,62.17
2019-02-19T06:31:11.092Z,67.23
2019-02-19T06:33:40.332Z,66.30
2019-02-19T06:36:09.644Z,68.60
2019-02-19T06:39:33.449Z,61.27
2019-02-19T06:42:06.126Z,64.80
2019-02-19T06:44:35.686Z,61.03
2019-02-19T06:47:07.232Z,63.20
2019-02-19T06:49:36.802Z,58.30
2019-02-19T06:52:06.226Z,61.87
2019-02-19T06:54:35.628Z,63.23
2019-02-19T06:57:05.057Z,58.43
2019-02-19T06:59:34.516Z,60.10
2019-02-19T07:02:05.570Z,56.43
2019-02-19T07:04:53.554Z,56.33
2019-02-19T07:07:27.339Z,50.37
2019-02-19T07:09:56.810Z,56.13
2019-02-19T07:12:26.234Z,56.43
2019-02-19T07:15:03.708Z,52.63
2019-02-19T07:17:41.077Z,56.47
2019-02-19T07:20:10.850Z,54.20
2019-02-19T07:22:40.266Z,58.53
2019-02-19T07:25:13.897Z,51.10
2019-02-19T07:27:43.330Z,56.93
2019-02-19T07:30:17.343Z,57.83
2019-02-19T07:32:47.020Z,50.10
2019-02-19T07:35:16.558Z,54.63
2019-02-19T07:37:46.031Z,50.90
2019-02-19T07:40:17.351Z,53.47
2019-02-19T07:42:48.716Z,48.87
2019-02-19T07:45:18.344Z,53.00
2019-02-19T07:47:47.781Z,53.30
2019-02-19T07:50:17.697Z,56.87
2019-02-19T07:52:47.270Z,53.67
2019-02-19T07:55:16.707Z,49.50
2019-02-19T07:57:46.116Z,53.83
2019-02-19T08:00:15.565Z,51.80
2019-02-19T08:02:45.021Z,51.90
2019-02-19T08:05:14.402Z,61.80
2019-02-19T08:07:48.441Z,59.77
2019-02-19T08:10:17.851Z,61.80
2019-02-19T08:12:50.291Z,63.50
2019-02-19T08:15:19.840Z,71.27
2019-02-19T08:17:52.274Z,65.73
2019-02-19T08:20:24.071Z,59.77
2019-02-19T08:23:00.560Z,71.10
2019-02-19T08:25:30.407Z,78.73
2019-02-19T08:28:00.041Z,90.17
2019-02-19T08:31:02.730Z,87.83
2019-02-19T08:33:36.705Z,92.70
2019-02-19T08:36:06.227Z,90.37
2019-02-19T08:38:35.666Z,71.73
2019-02-19T08:41:05.288Z,59.00
2019-02-19T08:43:36.156Z,49.03
2019-02-19T08:46:05.573Z,43.97
2019-02-19T08:48:35.024Z,42.83
2019-02-19T08:51:04.480Z,44.80
2019-02-19T08:53:33.939Z,42.97
2019-02-19T08:56:22.093Z,42.07
2019-02-19T08:58:51.905Z,36.60
2019-02-19T09:01:39.625Z,36.30
2019-02-19T09:04:15.466Z,29.73
2019-02-19T09:07:03.830Z,30.07
2019-02-19T09:09:42.148Z,31.50
2019-02-19T09:12:17.289Z,27.43
2019-02-19T09:14:55.837Z,29.97
2019-02-19T09:17:28.004Z,24.57
2019-02-19T09:19:57.504Z,29.03
2019-02-19T09:22:26.910Z,26.33
2019-02-19T09:25:08.979Z,25.80
2019-02-19T09:27:47.395Z,24.37
2019-02-19T09:30:16.844Z,30.10
2019-02-19T09:32:47.999Z,28.87
2019-02-19T09:35:19.372Z,29.70
2019-02-19T09:38:11.840Z,28.23
2019-02-19T09:41:01.192Z,28.40
2019-02-19T09:43:50.376Z,31.90
2019-02-19T09:46:50.615Z,25.80
2019-02-19T09:49:27.607Z,20.80
2019-02-19T09:51:57.102Z,22.53
2019-02-19T09:54:45.239Z,22.27
2019-02-19T09:57:19.198Z,25.10
2019-02-19T10:00:10.117Z,25.60
2019-02-19T10:02:58.075Z,21.17
2019-02-19T10:05:48.033Z,25.17
2019-02-19T10:08:27.600Z,18.13
2019-02-19T10:10:59.648Z,22.90
2019-02-19T10:13:37.546Z,21.73
2019-02-19T10:16:24.245Z,20.10
2019-02-19T10:19:26.061Z,18.17
2019-02-19T10:22:11.326Z,19.03
2019-02-19T10:24:40.868Z,23.03
2019-02-19T10:27:29.222Z,20.70
2019-02-19T10:30:19.235Z,19.87
2019-02-19T10:32:51.523Z,21.43
2019-02-19T10:35:39.427Z,24.47
2019-02-19T10:38:27.200Z,20.50
2019-02-19T10:41:11.967Z,20.57
2019-02-19T10:43:41.411Z,23.93
2019-02-19T10:46:12.609Z,18.33
2019-02-19T10:48:55.472Z,19.33
2019-02-19T10:51:37.074Z,16.43
2019-02-19T10:54:24.828Z,14.87
2019-02-19T10:57:06.350Z,17.40
2019-02-19T10:59:51.155Z,16.13
2019-02-19T11:02:26.558Z,18.50
2019-02-19T11:05:00.411Z,20.50
2019-02-19T11:07:32.732Z,16.97
2019-02-19T11:10:20.217Z,17.30
2019-02-19T11:13:08.355Z,23.60
2019-02-19T11:15:42.141Z,14.00
2019-02-19T11:18:11.560Z,19.70
2019-02-19T11:20:46.478Z,18.23
2019-02-19T11:23:20.415Z,22.30
2019-02-19T11:25:49.906Z,19.90
2019-02-19T11:28:21.990Z,21.97
2019-02-19T11:31:09.534Z,19.20
2019-02-19T11:33:40.552Z,15.97
2019-02-19T11:36:28.259Z,18.90
2019-02-19T11:39:00.329Z,15.97
2019-02-19T11:41:38.980Z,18.70
2019-02-19T11:44:11.116Z,17.97
2019-02-19T11:46:49.594Z,15.57
2019-02-19T11:49:37.128Z,16.47
2019-02-19T11:52:24.959Z,18.00
2019-02-19T11:55:14.749Z,14.43
2019-02-19T11:57:46.816Z,16.23
2019-02-19T12:00:23.649Z,14.77
2019-02-19T12:03:11.704Z,12.63
2019-02-19T12:05:59.361Z,12.63
2019-02-19T12:08:47.274Z,17.37
2019-02-19T12:11:22.450Z,14.73
2019-02-19T12:14:10.075Z,15.63
2019-02-19T12:16:57.627Z,12.60
2019-02-19T12:19:45.159Z,10.87
2019-02-19T12:22:32.550Z,13.40
2019-02-19T12:25:20.583Z,16.00
2019-02-19T12:28:09.476Z,12.40
2019-02-19T12:30:55.355Z,14.53
2019-02-19T12:35:23.572Z,10.87
2019-02-19T12:38:06.851Z,12.50
2019-02-19T12:40:51.408Z,13.63
2019-02-19T12:43:38.855Z,12.63
2019-02-19T12:46:17.284Z,9.90
2019-02-19T12:48:54.749Z,13.90
2019-02-19T12:51:40.513Z,10.67
2019-02-19T12:54:30.413Z,13.37
2019-02-19T12:56:59.197Z,12.30
2019-02-19T12:59:43.959Z,9.70
2019-02-19T13:02:19.615Z,15.07
2019-02-19T13:04:51.673Z,7.43
2019-02-19T13:07:21.288Z,13.33
2019-02-19T13:10:02.618Z,10.90
2019-02-19T13:12:34.653Z,10.90
2019-02-19T13:15:22.939Z,9.27
2019-02-19T13:17:52.433Z,11.13
2019-02-19T13:20:24.673Z,12.57
2019-02-19T13:23:12.297Z,12.83
2019-02-19T13:26:00.267Z,11.20
2019-02-19T13:28:47.362Z,11.70
2019-02-19T13:31:22.844Z,12.93
2019-02-19T13:33:52.272Z,12.83
2019-02-19T13:36:39.738Z,8.77
2019-02-19T13:39:11.799Z,8.40
2019-02-19T13:41:47.317Z,10.87
2019-02-19T13:44:19.558Z,9.93
2019-02-19T13:46:59.716Z,9.97
2019-02-19T13:49:32.283Z,11.90
2019-02-19T13:52:08.097Z,11.70
2019-02-19T13:54:43.790Z,8.87
2019-02-19T13:57:31.030Z,10.50
2019-02-19T14:00:18.382Z,8.17
2019-02-19T14:03:05.834Z,12.23
2019-02-19T14:05:37.814Z,7.73
2019-02-19T14:08:22.171Z,8.53
2019-02-19T14:11:09.739Z,7.67
2019-02-19T14:13:43.426Z,8.73
2019-02-19T14:16:16.944Z,10.13
2019-02-19T14:18:51.047Z,7.27
2019-02-19T14:21:23.895Z,8.40
2019-02-19T14:23:54.963Z,10.43
2019-02-19T14:26:25.987Z,9.53
2019-02-19T14:28:57.136Z,9.17
2019-02-19T14:31:28.118Z,7.17
2019-02-19T14:33:59.143Z,6.63
2019-02-19T14:36:30.561Z,11.23
2019-02-19T14:39:01.601Z,9.63
2019-02-19T14:41:32.678Z,8.13
2019-02-19T14:44:05.337Z,11.93
2019-02-19T14:46:36.375Z,6.87
2019-02-19T14:49:07.443Z,10.93
2019-02-19T14:51:40.014Z,9.63
2019-02-19T14:54:11.030Z,9.37
2019-02-19T14:56:42.139Z,14.47
2019-02-19T14:59:13.116Z,10.60
2019-02-19T15:01:44.147Z,9.17
2019-02-19T15:04:15.443Z,9.00
2019-02-19T15:06:46.442Z,8.00
2019-02-19T15:09:17.753Z,9.50
2019-02-19T15:11:52.657Z,11.63
2019-02-19T15:14:23.665Z,7.40
2019-02-19T15:16:54.702Z,7.37
2019-02-19T15:19:28.673Z,8.30
2019-02-19T15:21:59.862Z,8.63
2019-02-19T15:24:30.861Z,9.87
2019-02-19T15:27:01.858Z,8.47
2019-02-19T15:29:32.883Z,7.67
2019-02-19T15:32:03.984Z,6.87
2019-02-19T15:34:35.392Z,8.97
2019-02-19T15:37:19.842Z,5.80
2019-02-19T15:39:50.973Z,10.30
2019-02-19T15:42:24.451Z,10.27
2019-02-19T15:44:55.461Z,8.17
2019-02-19T15:47:29.523Z,7.20
2019-02-19T15:50:00.476Z,10.40
2019-02-19T15:52:31.727Z,13.70
2019-02-19T15:55:23.658Z,8.70
2019-02-19T15:57:54.691Z,8.60
2019-02-19T16:00:25.757Z,10.07
2019-02-19T16:02:56.764Z,9.27
2019-02-19T16:05:28.116Z,8.63
2019-02-19T16:10:45.858Z,8.43
2019-02-19T16:13:16.864Z,10.27
2019-02-19T16:15:48.257Z,7.43
2019-02-19T16:18:19.296Z,9.60
2019-02-19T16:20:50.484Z,10.60
2019-02-19T16:23:21.554Z,11.33
2019-02-19T16:25:52.577Z,9.80
2019-02-19T16:28:23.666Z,10.57
2019-02-19T16:30:54.755Z,7.27
2019-02-19T16:33:25.762Z,9.93
2019-02-19T16:35:57.081Z,10.50
2019-02-19T16:38:28.110Z,8.57
2019-02-19T16:40:59.147Z,8.97
2019-02-19T16:43:30.166Z,11.57
2019-02-19T16:46:01.273Z,9.97
2019-02-19T16:48:32.346Z,10.33
2019-02-19T16:51:03.358Z,11.23
2019-02-19T16:53:34.809Z,16.13
2019-02-19T16:56:05.904Z,10.07
2019-02-19T16:58:36.946Z,8.87
2019-02-19T17:01:08.026Z,10.17
2019-02-19T17:03:39.024Z,10.43
2019-02-19T17:06:10.054Z,12.10
2019-02-19T17:08:41.048Z,11.27
2019-02-19T17:11:12.208Z,12.77
2019-02-19T17:13:43.186Z,9.77
2019-02-19T17:16:14.228Z,13.63
2019-02-19T17:18:45.184Z,12.23
2019-02-19T17:21:16.266Z,11.47
2019-02-19T17:23:47.309Z,9.57
2019-02-19T17:26:18.335Z,9.90
2019-02-19T17:28:49.337Z,10.20
2019-02-19T17:31:22.739Z,14.73
2019-02-19T17:33:53.713Z,11.67
2019-02-19T17:36:24.716Z,9.07
2019-02-19T17:38:55.740Z,11.33
2019-02-19T17:41:26.748Z,18.60
2019-02-19T17:43:57.758Z,9.90
2019-02-19T17:46:28.829Z,12.37
2019-02-19T17:48:59.901Z,10.57
2019-02-19T17:51:31.291Z,9.03
2019-02-19T17:54:04.889Z,12.60
2019-02-19T17:56:35.980Z,13.37
2019-02-19T17:59:06.999Z,14.87
2019-02-19T18:01:38.012Z,16.03
2019-02-19T18:04:12.068Z,13.03
2019-02-19T18:06:44.731Z,18.00
2019-02-19T18:09:15.746Z,22.50
2019-02-19T18:11:46.762Z,33.87
2019-02-19T18:14:17.756Z,48.87
2019-02-19T18:16:48.816Z,45.93
2019-02-19T18:19:21.393Z,48.93
2019-02-19T18:21:50.862Z,48.13
2019-02-19T18:24:20.282Z,52.33
2019-02-19T18:26:49.697Z,50.97
2019-02-19T18:29:19.145Z,45.03
2019-02-19T18:31:48.534Z,48.10
2019-02-19T18:34:18.025Z,45.63
2019-02-19T18:36:47.451Z,47.13
2019-02-19T18:39:16.870Z,39.43
2019-02-19T18:41:46.328Z,41.23
2019-02-19T18:44:15.766Z,35.00
2019-02-19T18:46:47.884Z,39.60
2019-02-19T18:49:30.146Z,47.33
2019-02-19T18:51:59.593Z,48.57
2019-02-19T18:54:29.501Z,32.40
2019-02-19T18:56:58.913Z,41.80
2019-02-19T18:59:28.326Z,48.97
2019-02-19T19:02:17.134Z,57.20
2019-02-19T19:04:46.581Z,50.13
2019-02-19T19:07:16.041Z,41.90
2019-02-19T19:10:06.491Z,37.93
2019-02-19T19:12:35.930Z,36.57
2019-02-19T19:15:07.906Z,41.27
2019-02-19T19:17:50.426Z,39.90
2019-02-19T19:20:19.977Z,41.83
2019-02-19T19:22:49.379Z,40.43
2019-02-19T19:25:18.774Z,50.73
2019-02-19T19:27:48.179Z,47.97
2019-02-19T19:30:17.587Z,48.70
2019-02-19T19:32:59.904Z,49.23
2019-02-19T19:35:29.352Z,51.40
2019-02-19T19:37:58.773Z,47.30
2019-02-19T19:40:28.393Z,43.23
2019-02-19T19:42:57.847Z,35.60
2019-02-19T19:45:27.318Z,30.43
2019-02-19T19:47:56.720Z,23.40
2019-02-19T19:50:26.143Z,25.90
2019-02-19T19:52:55.631Z,23.07
2019-02-19T19:55:25.139Z,26.57
2019-02-19T19:58:13.949Z,32.87
2019-02-19T20:00:43.512Z,31.27
2019-02-19T20:03:15.328Z,29.83
2019-02-19T20:05:49.405Z,29.20
2019-02-19T20:08:18.893Z,33.70
2019-02-19T20:10:48.354Z,33.10
2019-02-19T20:13:20.496Z,29.07
2019-02-19T20:15:49.877Z,20.00
2019-02-19T20:18:20.556Z,21.90
2019-02-19T20:20:50.005Z,19.53
2019-02-19T20:23:19.443Z,20.07
2019-02-19T20:25:48.859Z,15.90
2019-02-19T20:28:18.319Z,14.33
2019-02-19T20:30:47.707Z,17.67
2019-02-19T20:33:17.195Z,21.43
2019-02-19T20:35:46.604Z,21.07
2019-02-19T20:38:16.026Z,25.63
2019-02-19T20:40:45.444Z,25.33
2019-02-19T20:43:14.859Z,26.50
2019-02-19T20:45:44.287Z,25.83
2019-02-19T20:48:13.825Z,33.37
2019-02-19T20:50:56.168Z,29.93
2019-02-19T20:53:43.631Z,34.03
2019-02-19T20:56:13.349Z,29.20
2019-02-19T20:58:42.774Z,35.97
2019-02-19T21:01:12.216Z,31.77
2019-02-19T21:03:41.720Z,38.57
2019-02-19T21:06:11.135Z,41.20
2019-02-19T21:08:40.532Z,47.00
2019-02-19T21:11:09.949Z,54.53
2019-02-19T21:13:39.357Z,59.33
2019-02-19T21:16:08.809Z,63.53
2019-02-19T21:18:38.223Z,69.07
2019-02-19T21:21:07.715Z,63.10
2019-02-19T21:23:37.125Z,67.90
2019-02-19T21:26:06.543Z,68.87
2019-02-19T21:28:35.977Z,62.43
2019-02-19T21:31:05.473Z,56.87
2019-02-19T21:33:34.927Z,46.33
2019-02-19T21:36:04.394Z,50.90
2019-02-19T21:38:33.890Z,54.27
2019-02-19T21:41:03.347Z,49.47
2019-02-19T21:43:32.771Z,41.40
2019-02-19T21:46:02.215Z,41.47
2019-02-19T21:48:31.706Z,35.70
2019-02-19T21:51:01.155Z,33.10
2019-02-19T21:53:30.577Z,28.73
2019-02-19T21:56:00.051Z,27.67
2019-02-19T21:58:29.828Z,53.33
2019-02-19T22:00:59.255Z,51.37
2019-02-19T22:03:28.754Z,76.73
2019-02-19T22:05:58.263Z,77.93
2019-02-19T22:08:27.651Z,66.40
2019-02-19T22:10:57.069Z,42.87
2019-02-19T22:13:26.488Z,36.17
2019-02-19T22:15:55.935Z,22.07
2019-02-19T22:18:25.334Z,24.83
2019-02-19T22:20:56.386Z,21.17
2019-02-19T22:23:26.092Z,21.40
2019-02-19T22:25:55.499Z,21.50
2019-02-19T22:28:24.929Z,16.03
2019-02-19T22:30:54.398Z,19.50
2019-02-19T22:33:23.858Z,17.93
2019-02-19T22:35:53.349Z,19.17
2019-02-19T22:38:22.831Z,16.63
2019-02-19T22:40:55.130Z,19.57
2019-02-19T22:43:42.748Z,20.90
2019-02-19T22:46:12.185Z,20.60
2019-02-19T22:48:41.595Z,23.73
2019-02-19T22:51:23.871Z,17.73
2019-02-19T22:53:54.903Z,19.00
2019-02-19T22:56:25.889Z,20.47
2019-02-19T22:59:15.807Z,19.13
2019-02-19T23:01:46.815Z,21.90
2019-02-19T23:04:16.370Z,16.93
2019-02-19T23:06:45.818Z,17.80
2019-02-19T23:09:15.226Z,20.33
2019-02-19T23:11:44.655Z,19.93
2019-02-19T23:14:14.069Z,22.73
2019-02-19T23:16:43.539Z,16.97
2019-02-19T23:19:12.941Z,16.17
2019-02-19T23:21:42.380Z,18.53
2019-02-19T23:24:11.754Z,16.67
2019-02-19T23:26:41.159Z,13.83
2019-02-19T23:29:10.566Z,22.67
2019-02-19T23:31:39.958Z,16.63
2019-02-19T23:34:09.367Z,17.13
2019-02-19T23:36:40.404Z,15.60
2019-02-19T23:39:09.810Z,17.47
2019-02-19T23:41:39.219Z,22.17
2019-02-19T23:44:08.627Z,18.23
2019-02-19T23:46:38.035Z,18.77
2019-02-19T23:49:07.457Z,19.57
2019-02-19T23:51:36.832Z,18.60
2019-02-19T23:54:06.260Z,16.83
2019-02-19T23:56:35.680Z,21.83
2019-02-19T23:59:05.153Z,20.67
